sensor_id;sensor_type;location;lat;lon;timestamp;pressure;altitude;pressure_sealevel;temperature;humidity
60465;BME280;46314;52.392;9.758;2023-04-03T00:02:14;102400.72;;;2.71;64.14
60465;BME280;46314;52.392;9.758;2023-04-03T00:04:40;102405.47;;;2.49;64.54
60465;BME280;46314;52.392;9.758;2023-04-03T00:07:07;102409.31;;;2.61;64.11
60465;BME280;46314;52.392;9.758;2023-04-03T00:09:33;102401.81;;;2.83;64.16
60465;BME280;46314;52.392;9.758;2023-04-03T00:12:01;102412.34;;;2.80;63.77
60465;BME280;46314;52.392;9.758;2023-04-03T00:14:27;102413.06;;;2.47;64.96
60465;BME280;46314;52.392;9.758;2023-04-03T00:16:54;102409.75;;;2.65;64.54
60465;BME280;46314;52.392;9.758;2023-04-03T00:19:21;102410.25;;;2.34;65.59
60465;BME280;46314;52.392;9.758;2023-04-03T00:21:47;102414.53;;;2.43;65.50
60465;BME280;46314;52.392;9.758;2023-04-03T00:24:13;102414.75;;;2.55;65.34
60465;BME280;46314;52.392;9.758;2023-04-03T00:26:40;102417.50;;;2.55;65.31
60465;BME280;46314;52.392;9.758;2023-04-03T00:29:07;102417.66;;;2.40;65.86
60465;BME280;46314;52.392;9.758;2023-04-03T00:31:34;102420.00;;;2.50;65.27
60465;BME280;46314;52.392;9.758;2023-04-03T00:34:00;102422.59;;;2.58;64.92
60465;BME280;46314;52.392;9.758;2023-04-03T00:36:27;102424.88;;;3.36;63.26
60465;BME280;46314;52.392;9.758;2023-04-03T00:38:54;102434.66;;;2.77;64.15
60465;BME280;46314;52.392;9.758;2023-04-03T00:41:20;102430.56;;;2.53;65.39
60465;BME280;46314;52.392;9.758;2023-04-03T00:43:46;102432.81;;;2.91;64.38
60465;BME280;46314;52.392;9.758;2023-04-03T00:46:14;102436.03;;;3.01;63.43
60465;BME280;46314;52.392;9.758;2023-04-03T00:48:42;102434.59;;;3.32;63.43
60465;BME280;46314;52.392;9.758;2023-04-03T00:51:13;102428.31;;;2.70;64.05
60465;BME280;46314;52.392;9.758;2023-04-03T00:53:44;102428.84;;;2.45;65.32
60465;BME280;46314;52.392;9.758;2023-04-03T00:56:15;102438.75;;;2.46;65.89
60465;BME280;46314;52.392;9.758;2023-04-03T00:58:47;102437.75;;;2.54;65.47
60465;BME280;46314;52.392;9.758;2023-04-03T01:01:19;102453.50;;;2.45;65.92
60465;BME280;46314;52.392;9.758;2023-04-03T01:03:47;102445.38;;;2.23;66.34
60465;BME280;46314;52.392;9.758;2023-04-03T01:06:16;102446.50;;;2.36;65.88
60465;BME280;46314;52.392;9.758;2023-04-03T01:08:44;102446.28;;;2.37;65.66
60465;BME280;46314;52.392;9.758;2023-04-03T01:11:10;102446.13;;;2.11;67.13
60465;BME280;46314;52.392;9.758;2023-04-03T01:13:36;102445.16;;;2.25;66.54
60465;BME280;46314;52.392;9.758;2023-04-03T01:16:04;102451.41;;;2.12;67.04
60465;BME280;46314;52.392;9.758;2023-04-03T01:18:33;102447.28;;;1.95;67.80
60465;BME280;46314;52.392;9.758;2023-04-03T01:24:03;102442.94;;;2.07;67.77
60465;BME280;46314;52.392;9.758;2023-04-03T01:26:33;102448.72;;;2.19;67.41
60465;BME280;46314;52.392;9.758;2023-04-03T01:28:59;102446.75;;;2.47;66.21
60465;BME280;46314;52.392;9.758;2023-04-03T01:31:28;102447.47;;;1.93;67.32
60465;BME280;46314;52.392;9.758;2023-04-03T01:33:58;102460.63;;;2.04;67.30
60465;BME280;46314;52.392;9.758;2023-04-03T01:36:27;102452.69;;;2.16;66.79
60465;BME280;46314;52.392;9.758;2023-04-03T01:38:54;102454.06;;;1.99;67.51
60465;BME280;46314;52.392;9.758;2023-04-03T01:41:22;102456.81;;;2.05;67.45
60465;BME280;46314;52.392;9.758;2023-04-03T01:43:49;102459.81;;;2.11;67.05
60465;BME280;46314;52.392;9.758;2023-04-03T01:46:16;102456.16;;;2.32;66.88
60465;BME280;46314;52.392;9.758;2023-04-03T01:48:43;102466.13;;;1.83;68.17
60465;BME280;46314;52.392;9.758;2023-04-03T01:51:11;102460.47;;;1.84;67.28
60465;BME280;46314;52.392;9.758;2023-04-03T01:53:37;102462.47;;;1.97;68.27
60465;BME280;46314;52.392;9.758;2023-04-03T01:56:04;102461.72;;;2.45;66.19
60465;BME280;46314;52.392;9.758;2023-04-03T01:58:31;102457.50;;;2.49;66.55
60465;BME280;46314;52.392;9.758;2023-04-03T02:00:57;102461.97;;;3.12;64.35
60465;BME280;46314;52.392;9.758;2023-04-03T02:03:24;102457.94;;;3.01;63.60
60465;BME280;46314;52.392;9.758;2023-04-03T02:05:50;102462.91;;;2.77;65.06
60465;BME280;46314;52.392;9.758;2023-04-03T02:08:18;102464.22;;;2.81;64.34
60465;BME280;46314;52.392;9.758;2023-04-03T02:10:47;102460.63;;;2.39;65.46
60465;BME280;46314;52.392;9.758;2023-04-03T02:13:13;102460.88;;;2.10;66.91
60465;BME280;46314;52.392;9.758;2023-04-03T02:15:40;102456.31;;;2.65;64.93
60465;BME280;46314;52.392;9.758;2023-04-03T02:18:07;102469.06;;;2.44;65.16
60465;BME280;46314;52.392;9.758;2023-04-03T02:20:33;102466.13;;;2.46;65.78
60465;BME280;46314;52.392;9.758;2023-04-03T02:23:00;102464.94;;;2.55;65.29
60465;BME280;46314;52.392;9.758;2023-04-03T02:25:30;102464.59;;;2.37;65.85
60465;BME280;46314;52.392;9.758;2023-04-03T02:27:57;102467.13;;;2.73;65.09
60465;BME280;46314;52.392;9.758;2023-04-03T02:30:23;102467.34;;;2.78;64.19
60465;BME280;46314;52.392;9.758;2023-04-03T02:32:49;102467.16;;;2.80;64.51
60465;BME280;46314;52.392;9.758;2023-04-03T02:35:16;102469.66;;;2.33;65.95
60465;BME280;46314;52.392;9.758;2023-04-03T02:37:42;102472.88;;;1.37;67.93
60465;BME280;46314;52.392;9.758;2023-04-03T02:40:09;102474.78;;;2.50;66.07
60465;BME280;46314;52.392;9.758;2023-04-03T02:42:37;102471.25;;;2.56;65.45
60465;BME280;46314;52.392;9.758;2023-04-03T02:45:05;102467.63;;;2.49;64.94
60465;BME280;46314;52.392;9.758;2023-04-03T02:47:31;102469.63;;;2.68;64.57
60465;BME280;46314;52.392;9.758;2023-04-03T02:49:58;102465.56;;;2.57;64.56
60465;BME280;46314;52.392;9.758;2023-04-03T02:52:24;102473.91;;;2.42;65.83
60465;BME280;46314;52.392;9.758;2023-04-03T02:54:51;102478.88;;;2.67;64.45
60465;BME280;46314;52.392;9.758;2023-04-03T02:57:17;102481.72;;;2.11;65.52
60465;BME280;46314;52.392;9.758;2023-04-03T02:59:45;102486.03;;;2.26;65.89
60465;BME280;46314;52.392;9.758;2023-04-03T03:02:11;102479.47;;;1.64;67.56
60465;BME280;46314;52.392;9.758;2023-04-03T03:04:38;102478.16;;;1.60;68.50
60465;BME280;46314;52.392;9.758;2023-04-03T03:07:04;102482.66;;;1.96;66.61
60465;BME280;46314;52.392;9.758;2023-04-03T03:09:30;102479.53;;;1.71;68.73
60465;BME280;46314;52.392;9.758;2023-04-03T03:11:57;102476.16;;;1.69;68.39
60465;BME280;46314;52.392;9.758;2023-04-03T03:14:23;102483.88;;;1.44;69.27
60465;BME280;46314;52.392;9.758;2023-04-03T03:16:51;102490.09;;;2.02;67.37
60465;BME280;46314;52.392;9.758;2023-04-03T03:19:17;102486.25;;;1.47;68.67
60465;BME280;46314;52.392;9.758;2023-04-03T03:21:44;102488.44;;;1.37;69.51
60465;BME280;46314;52.392;9.758;2023-04-03T03:24:10;102495.22;;;1.62;68.50
60465;BME280;46314;52.392;9.758;2023-04-03T03:26:37;102486.41;;;1.67;69.36
60465;BME280;46314;52.392;9.758;2023-04-03T03:29:03;102484.44;;;1.18;70.06
60465;BME280;46314;52.392;9.758;2023-04-03T03:31:29;102491.47;;;1.05;70.12
60465;BME280;46314;52.392;9.758;2023-04-03T03:33:57;102488.56;;;1.28;69.89
60465;BME280;46314;52.392;9.758;2023-04-03T03:36:24;102498.47;;;1.73;68.92
60465;BME280;46314;52.392;9.758;2023-04-03T03:38:51;102491.50;;;1.27;70.29
60465;BME280;46314;52.392;9.758;2023-04-03T03:41:17;102495.72;;;1.08;71.34
60465;BME280;46314;52.392;9.758;2023-04-03T03:43:43;102493.19;;;1.49;70.22
60465;BME280;46314;52.392;9.758;2023-04-03T03:46:10;102495.53;;;1.31;69.92
60465;BME280;46314;52.392;9.758;2023-04-03T03:48:36;102496.41;;;1.53;69.65
60465;BME280;46314;52.392;9.758;2023-04-03T03:51:04;102497.91;;;1.34;70.27
60465;BME280;46314;52.392;9.758;2023-04-03T03:53:30;102491.72;;;1.10;70.30
60465;BME280;46314;52.392;9.758;2023-04-03T03:55:57;102499.09;;;1.31;70.99
60465;BME280;46314;52.392;9.758;2023-04-03T03:58:23;102496.19;;;1.55;69.66
60465;BME280;46314;52.392;9.758;2023-04-03T04:00:50;102495.53;;;1.31;71.19
60465;BME280;46314;52.392;9.758;2023-04-03T04:03:16;102500.63;;;1.56;69.95
60465;BME280;46314;52.392;9.758;2023-04-03T04:05:43;102500.63;;;1.34;69.87
60465;BME280;46314;52.392;9.758;2023-04-03T04:08:11;102491.88;;;1.67;69.44
60465;BME280;46314;52.392;9.758;2023-04-03T04:10:38;102495.41;;;0.81;72.00
60465;BME280;46314;52.392;9.758;2023-04-03T04:13:04;102490.06;;;0.94;72.86
60465;BME280;46314;52.392;9.758;2023-04-03T04:15:30;102500.06;;;1.02;73.03
60465;BME280;46314;52.392;9.758;2023-04-03T04:17:57;102492.84;;;0.80;73.06
60465;BME280;46314;52.392;9.758;2023-04-03T04:20:23;102489.38;;;0.71;73.74
60465;BME280;46314;52.392;9.758;2023-04-03T04:22:50;102491.94;;;0.72;73.99
60465;BME280;46314;52.392;9.758;2023-04-03T04:25:18;102501.22;;;0.78;73.81
60465;BME280;46314;52.392;9.758;2023-04-03T04:27:44;102500.34;;;1.29;72.52
60465;BME280;46314;52.392;9.758;2023-04-03T04:30:11;102500.53;;;0.91;72.92
60465;BME280;46314;52.392;9.758;2023-04-03T04:32:38;102493.91;;;1.15;71.41
60465;BME280;46314;52.392;9.758;2023-04-03T04:35:05;102507.25;;;0.88;72.78
60465;BME280;46314;52.392;9.758;2023-04-03T04:37:31;102502.66;;;0.74;73.54
60465;BME280;46314;52.392;9.758;2023-04-03T04:39:58;102506.69;;;0.78;73.70
60465;BME280;46314;52.392;9.758;2023-04-03T04:42:25;102510.16;;;0.87;72.70
60465;BME280;46314;52.392;9.758;2023-04-03T04:44:52;102521.22;;;0.64;73.62
60465;BME280;46314;52.392;9.758;2023-04-03T04:47:18;102521.28;;;0.85;73.78
60465;BME280;46314;52.392;9.758;2023-04-03T04:49:45;102514.59;;;0.58;74.23
60465;BME280;46314;52.392;9.758;2023-04-03T04:52:11;102520.81;;;0.82;73.51
60465;BME280;46314;52.392;9.758;2023-04-03T04:54:37;102524.41;;;0.52;73.99
60465;BME280;46314;52.392;9.758;2023-04-03T04:57:04;102521.97;;;0.72;73.26
60465;BME280;46314;52.392;9.758;2023-04-03T04:59:31;102521.25;;;1.37;71.25
60465;BME280;46314;52.392;9.758;2023-04-03T05:01:58;102523.59;;;1.18;72.63
60465;BME280;46314;52.392;9.758;2023-04-03T05:04:24;102527.56;;;1.37;71.64
60465;BME280;46314;52.392;9.758;2023-04-03T05:06:51;102526.63;;;1.30;71.57
60465;BME280;46314;52.392;9.758;2023-04-03T05:09:17;102528.13;;;1.69;70.65
60465;BME280;46314;52.392;9.758;2023-04-03T05:11:43;102534.09;;;1.58;70.28
60465;BME280;46314;52.392;9.758;2023-04-03T05:14:10;102523.63;;;1.25;70.77
60465;BME280;46314;52.392;9.758;2023-04-03T05:16:37;102533.81;;;1.31;71.05
60465;BME280;46314;52.392;9.758;2023-04-03T05:19:04;102535.19;;;1.42;71.94
60465;BME280;46314;52.392;9.758;2023-04-03T05:21:30;102547.91;;;0.98;72.41
60465;BME280;46314;52.392;9.758;2023-04-03T05:23:57;102546.91;;;1.36;71.66
60465;BME280;46314;52.392;9.758;2023-04-03T05:26:23;102548.59;;;1.37;70.74
60465;BME280;46314;52.392;9.758;2023-04-03T05:28:50;102544.13;;;1.14;72.04
60465;BME280;46314;52.392;9.758;2023-04-03T05:31:16;102550.91;;;1.18;71.69
60465;BME280;46314;52.392;9.758;2023-04-03T05:33:44;102546.47;;;1.17;72.24
60465;BME280;46314;52.392;9.758;2023-04-03T05:36:10;102553.91;;;1.23;72.40
60465;BME280;46314;52.392;9.758;2023-04-03T05:38:37;102556.25;;;1.26;71.62
60465;BME280;46314;52.392;9.758;2023-04-03T05:41:04;102562.78;;;1.10;73.20
60465;BME280;46314;52.392;9.758;2023-04-03T05:43:30;102561.63;;;1.99;69.25
60465;BME280;46314;52.392;9.758;2023-04-03T05:45:57;102565.50;;;1.83;69.23
60465;BME280;46314;52.392;9.758;2023-04-03T05:48:23;102566.22;;;0.98;72.24
60465;BME280;46314;52.392;9.758;2023-04-03T05:50:51;102572.50;;;1.13;72.20
60465;BME280;46314;52.392;9.758;2023-04-03T05:53:20;102570.84;;;1.33;71.56
60465;BME280;46314;52.392;9.758;2023-04-03T05:55:47;102579.19;;;0.51;73.05
60465;BME280;46314;52.392;9.758;2023-04-03T05:58:14;102577.78;;;1.15;72.50
60465;BME280;46314;52.392;9.758;2023-04-03T06:00:40;102578.53;;;1.08;72.44
60465;BME280;46314;52.392;9.758;2023-04-03T06:03:07;102581.44;;;1.22;72.07
60465;BME280;46314;52.392;9.758;2023-04-03T06:05:33;102586.09;;;1.43;70.88
60465;BME280;46314;52.392;9.758;2023-04-03T06:08:02;102585.88;;;1.81;69.75
60465;BME280;46314;52.392;9.758;2023-04-03T06:10:29;102592.09;;;1.17;71.72
60465;BME280;46314;52.392;9.758;2023-04-03T06:12:55;102594.94;;;0.93;72.42
60465;BME280;46314;52.392;9.758;2023-04-03T06:15:22;102608.19;;;1.26;72.55
60465;BME280;46314;52.392;9.758;2023-04-03T06:17:48;102613.94;;;1.89;70.30
60465;BME280;46314;52.392;9.758;2023-04-03T06:20:15;102607.44;;;1.69;70.23
60465;BME280;46314;52.392;9.758;2023-04-03T06:22:41;102604.84;;;1.46;70.79
60465;BME280;46314;52.392;9.758;2023-04-03T06:25:09;102601.03;;;1.25;71.96
60465;BME280;46314;52.392;9.758;2023-04-03T06:27:35;102604.31;;;1.36;71.84
60465;BME280;46314;52.392;9.758;2023-04-03T06:30:02;102597.09;;;1.49;71.48
60465;BME280;46314;52.392;9.758;2023-04-03T06:32:29;102600.44;;;1.66;70.12
60465;BME280;46314;52.392;9.758;2023-04-03T06:34:55;102604.97;;;1.38;71.13
60465;BME280;46314;52.392;9.758;2023-04-03T06:37:22;102603.06;;;1.53;70.90
60465;BME280;46314;52.392;9.758;2023-04-03T06:39:49;102600.19;;;1.61;70.86
60465;BME280;46314;52.392;9.758;2023-04-03T06:42:17;102606.38;;;1.33;70.87
60465;BME280;46314;52.392;9.758;2023-04-03T06:44:43;102613.25;;;2.02;68.91
60465;BME280;46314;52.392;9.758;2023-04-03T06:47:11;102616.00;;;2.02;69.26
60465;BME280;46314;52.392;9.758;2023-04-03T06:49:38;102618.81;;;2.16;68.39
60465;BME280;46314;52.392;9.758;2023-04-03T06:52:05;102624.44;;;2.07;68.55
60465;BME280;46314;52.392;9.758;2023-04-03T06:54:32;102623.66;;;1.92;68.36
60465;BME280;46314;52.392;9.758;2023-04-03T06:56:58;102627.31;;;2.21;67.25
60465;BME280;46314;52.392;9.758;2023-04-03T06:59:26;102625.97;;;1.74;68.27
60465;BME280;46314;52.392;9.758;2023-04-03T07:01:53;102635.53;;;1.99;68.15
60465;BME280;46314;52.392;9.758;2023-04-03T07:04:20;102630.31;;;2.04;67.83
60465;BME280;46314;52.392;9.758;2023-04-03T07:06:47;102642.94;;;2.05;67.41
60465;BME280;46314;52.392;9.758;2023-04-03T07:09:14;102639.16;;;2.28;65.83
60465;BME280;46314;52.392;9.758;2023-04-03T07:11:41;102645.81;;;2.19;66.69
60465;BME280;46314;52.392;9.758;2023-04-03T07:14:07;102655.88;;;2.61;65.05
60465;BME280;46314;52.392;9.758;2023-04-03T07:16:35;102655.09;;;2.68;65.79
60465;BME280;46314;52.392;9.758;2023-04-03T07:19:04;102654.13;;;2.54;64.97
60465;BME280;46314;52.392;9.758;2023-04-03T07:21:30;102656.88;;;2.54;65.25
60465;BME280;46314;52.392;9.758;2023-04-03T07:23:57;102650.75;;;2.30;65.25
60465;BME280;46314;52.392;9.758;2023-04-03T07:26:23;102657.47;;;2.77;64.44
60465;BME280;46314;52.392;9.758;2023-04-03T07:28:50;102653.81;;;2.98;63.79
60465;BME280;46314;52.392;9.758;2023-04-03T07:31:17;102659.84;;;2.87;63.61
60465;BME280;46314;52.392;9.758;2023-04-03T07:33:45;102668.31;;;2.92;63.32
60465;BME280;46314;52.392;9.758;2023-04-03T07:36:16;102660.69;;;2.88;63.27
60465;BME280;46314;52.392;9.758;2023-04-03T07:38:42;102663.78;;;3.06;62.82
60465;BME280;46314;52.392;9.758;2023-04-03T07:41:11;102667.66;;;3.25;62.01
60465;BME280;46314;52.392;9.758;2023-04-03T07:43:38;102660.63;;;3.09;62.67
60465;BME280;46314;52.392;9.758;2023-04-03T07:46:05;102663.78;;;3.13;62.10
60465;BME280;46314;52.392;9.758;2023-04-03T07:48:31;102667.41;;;3.13;61.92
60465;BME280;46314;52.392;9.758;2023-04-03T07:51:00;102663.50;;;3.36;60.90
60465;BME280;46314;52.392;9.758;2023-04-03T07:53:27;102661.47;;;3.51;60.85
60465;BME280;46314;52.392;9.758;2023-04-03T07:55:53;102665.69;;;3.47;59.54
60465;BME280;46314;52.392;9.758;2023-04-03T07:58:20;102671.31;;;3.39;59.15
60465;BME280;46314;52.392;9.758;2023-04-03T08:00:47;102663.41;;;3.57;59.28
60465;BME280;46314;52.392;9.758;2023-04-03T08:03:14;102657.81;;;3.37;59.11
60465;BME280;46314;52.392;9.758;2023-04-03T08:05:42;102662.97;;;3.54;59.35
60465;BME280;46314;52.392;9.758;2023-04-03T08:08:11;102661.16;;;3.81;59.15
60465;BME280;46314;52.392;9.758;2023-04-03T08:10:38;102656.94;;;3.78;59.04
60465;BME280;46314;52.392;9.758;2023-04-03T08:13:05;102663.72;;;4.03;58.55
60465;BME280;46314;52.392;9.758;2023-04-03T08:15:32;102656.56;;;4.02;58.57
60465;BME280;46314;52.392;9.758;2023-04-03T08:17:59;102655.34;;;4.51;58.04
60465;BME280;46314;52.392;9.758;2023-04-03T08:20:26;102659.66;;;3.85;58.71
60465;BME280;46314;52.392;9.758;2023-04-03T08:22:53;102667.13;;;3.98;59.11
60465;BME280;46314;52.392;9.758;2023-04-03T08:25:21;102658.25;;;4.09;58.57
60465;BME280;46314;52.392;9.758;2023-04-03T08:27:48;102665.91;;;4.47;57.75
60465;BME280;46314;52.392;9.758;2023-04-03T08:30:15;102665.28;;;4.39;57.38
60465;BME280;46314;52.392;9.758;2023-04-03T08:32:41;102660.81;;;4.71;56.74
60465;BME280;46314;52.392;9.758;2023-04-03T08:35:08;102651.09;;;4.48;56.67
60465;BME280;46314;52.392;9.758;2023-04-03T08:37:35;102664.84;;;4.55;56.04
60465;BME280;46314;52.392;9.758;2023-04-03T08:40:02;102659.56;;;4.33;56.28
60465;BME280;46314;52.392;9.758;2023-04-03T08:42:38;102660.84;;;4.51;55.96
60465;BME280;46314;52.392;9.758;2023-04-03T08:45:10;102650.69;;;4.51;55.63
60465;BME280;46314;52.392;9.758;2023-04-03T08:47:42;102657.03;;;4.39;54.71
60465;BME280;46314;52.392;9.758;2023-04-03T08:50:13;102659.13;;;4.43;54.81
60465;BME280;46314;52.392;9.758;2023-04-03T08:52:44;102646.66;;;4.67;53.88
60465;BME280;46314;52.392;9.758;2023-04-03T08:55:22;102640.31;;;4.80;53.14
60465;BME280;46314;52.392;9.758;2023-04-03T08:57:56;102646.03;;;4.65;52.11
60465;BME280;46314;52.392;9.758;2023-04-03T09:00:25;102643.81;;;5.21;52.30
60465;BME280;46314;52.392;9.758;2023-04-03T09:02:55;102650.47;;;4.66;51.21
60465;BME280;46314;52.392;9.758;2023-04-03T09:05:32;102647.47;;;4.88;50.09
60465;BME280;46314;52.392;9.758;2023-04-03T09:08:05;102650.63;;;5.05;49.72
60465;BME280;46314;52.392;9.758;2023-04-03T09:10:37;102647.19;;;6.13;47.92
60465;BME280;46314;52.392;9.758;2023-04-03T09:13:11;102654.09;;;6.98;45.45
60465;BME280;46314;52.392;9.758;2023-04-03T09:15:40;102643.44;;;9.59;40.33
60465;BME280;46314;52.392;9.758;2023-04-03T09:18:12;102649.94;;;7.81;44.15
60465;BME280;46314;52.392;9.758;2023-04-03T09:20:46;102649.00;;;11.68;36.28
60465;BME280;46314;52.392;9.758;2023-04-03T09:23:22;102645.91;;;10.01;37.72
60465;BME280;46314;52.392;9.758;2023-04-03T09:25:58;102636.50;;;7.85;42.01
60465;BME280;46314;52.392;9.758;2023-04-03T09:28:29;102635.16;;;7.38;42.43
60465;BME280;46314;52.392;9.758;2023-04-03T09:31:14;102644.53;;;7.00;42.85
60465;BME280;46314;52.392;9.758;2023-04-03T09:33:42;102632.25;;;7.52;41.46
60465;BME280;46314;52.392;9.758;2023-04-03T09:36:09;102634.56;;;7.36;42.79
60465;BME280;46314;52.392;9.758;2023-04-03T09:38:36;102631.28;;;7.46;41.73
60465;BME280;46314;52.392;9.758;2023-04-03T09:41:05;102621.94;;;7.77;41.45
60465;BME280;46314;52.392;9.758;2023-04-03T09:43:33;102624.16;;;7.20;42.22
60465;BME280;46314;52.392;9.758;2023-04-03T09:46:18;102623.47;;;6.12;43.35
60465;BME280;46314;52.392;9.758;2023-04-03T09:48:50;102632.16;;;6.41;43.33
60465;BME280;46314;52.392;9.758;2023-04-03T09:51:27;102619.84;;;7.43;41.61
60465;BME280;46314;52.392;9.758;2023-04-03T09:53:55;102616.44;;;6.41;41.93
60465;BME280;46314;52.392;9.758;2023-04-03T09:56:24;102614.84;;;6.02;43.01
60465;BME280;46314;52.392;9.758;2023-04-03T09:59:07;102627.44;;;6.48;42.45
60465;BME280;46314;52.392;9.758;2023-04-03T10:01:36;102606.47;;;6.15;42.92
60465;BME280;46314;52.392;9.758;2023-04-03T10:04:08;102621.75;;;6.87;41.99
60465;BME280;46314;52.392;9.758;2023-04-03T10:06:37;102609.00;;;6.67;42.13
60465;BME280;46314;52.392;9.758;2023-04-03T10:09:05;102607.72;;;6.44;42.58
60465;BME280;46314;52.392;9.758;2023-04-03T10:11:32;102615.91;;;6.76;42.41
60465;BME280;46314;52.392;9.758;2023-04-03T10:14:01;102602.50;;;6.80;41.81
60465;BME280;46314;52.392;9.758;2023-04-03T10:16:34;102598.41;;;7.87;40.79
60465;BME280;46314;52.392;9.758;2023-04-03T10:19:27;102590.50;;;8.80;39.20
60465;BME280;46314;52.392;9.758;2023-04-03T10:21:59;102599.78;;;7.17;41.35
60465;BME280;46314;52.392;9.758;2023-04-03T10:24:34;102592.41;;;6.92;42.09
60465;BME280;46314;52.392;9.758;2023-04-03T10:27:05;102596.63;;;7.13;42.49
60465;BME280;46314;52.392;9.758;2023-04-03T10:29:40;102596.50;;;6.90;42.23
60465;BME280;46314;52.392;9.758;2023-04-03T10:32:23;102596.31;;;6.41;41.92
60465;BME280;46314;52.392;9.758;2023-04-03T10:34:57;102589.03;;;6.90;41.06
60465;BME280;46314;52.392;9.758;2023-04-03T10:37:47;102591.91;;;6.58;41.56
60465;BME280;46314;52.392;9.758;2023-04-03T10:40:24;102577.44;;;5.87;42.70
60465;BME280;46314;52.392;9.758;2023-04-03T10:42:58;102580.41;;;6.43;41.91
60465;BME280;46314;52.392;9.758;2023-04-03T10:45:38;102586.25;;;6.53;40.42
60465;BME280;46314;52.392;9.758;2023-04-03T10:48:16;102580.63;;;7.04;40.17
60465;BME280;46314;52.392;9.758;2023-04-03T10:50:47;102584.19;;;6.86;40.85
60465;BME280;46314;52.392;9.758;2023-04-03T10:53:21;102582.63;;;6.28;40.33
60465;BME280;46314;52.392;9.758;2023-04-03T10:55:54;102580.78;;;6.90;39.33
60465;BME280;46314;52.392;9.758;2023-04-03T10:58:26;102581.81;;;6.89;39.26
60465;BME280;46314;52.392;9.758;2023-04-03T11:01:01;102571.13;;;7.18;38.86
60465;BME280;46314;52.392;9.758;2023-04-03T11:03:32;102566.22;;;7.50;39.08
60465;BME280;46314;52.392;9.758;2023-04-03T11:06:02;102564.63;;;7.43;40.01
60465;BME280;46314;52.392;9.758;2023-04-03T11:08:34;102548.81;;;7.92;39.65
60465;BME280;46314;52.392;9.758;2023-04-03T11:11:05;102554.63;;;8.02;39.78
60465;BME280;46314;52.392;9.758;2023-04-03T11:13:34;102554.66;;;8.49;39.23
60465;BME280;46314;52.392;9.758;2023-04-03T11:16:05;102553.44;;;9.33;38.56
60465;BME280;46314;52.392;9.758;2023-04-03T11:18:35;102558.47;;;10.11;37.06
60465;BME280;46314;52.392;9.758;2023-04-03T11:21:07;102554.09;;;9.52;37.56
60465;BME280;46314;52.392;9.758;2023-04-03T11:23:36;102549.72;;;8.75;39.46
60465;BME280;46314;52.392;9.758;2023-04-03T11:26:17;102538.69;;;7.44;40.35
60465;BME280;46314;52.392;9.758;2023-04-03T11:28:44;102540.00;;;8.61;39.37
60465;BME280;46314;52.392;9.758;2023-04-03T11:31:30;102544.78;;;8.30;39.17
60465;BME280;46314;52.392;9.758;2023-04-03T11:34:06;102539.34;;;7.57;40.68
60465;BME280;46314;52.392;9.758;2023-04-03T11:36:39;102530.53;;;7.18;41.34
60465;BME280;46314;52.392;9.758;2023-04-03T11:39:15;102549.72;;;6.76;42.12
60465;BME280;46314;52.392;9.758;2023-04-03T11:41:43;102541.72;;;7.24;41.80
60465;BME280;46314;52.392;9.758;2023-04-03T11:44:29;102531.00;;;7.76;41.64
60465;BME280;46314;52.392;9.758;2023-04-03T11:46:59;102533.88;;;7.69;41.22
60465;BME280;46314;52.392;9.758;2023-04-03T11:53:00;102531.66;;;8.37;39.46
60465;BME280;46314;52.392;9.758;2023-04-03T11:55:58;102528.03;;;8.96;38.26
60465;BME280;46314;52.392;9.758;2023-04-03T11:58:27;102522.22;;;9.09;37.84
60465;BME280;46314;52.392;9.758;2023-04-03T12:01:08;102522.72;;;7.34;40.43
60465;BME280;46314;52.392;9.758;2023-04-03T12:04:03;102523.09;;;8.98;38.17
60465;BME280;46314;52.392;9.758;2023-04-03T12:07:08;102519.28;;;8.04;39.08
60465;BME280;46314;52.392;9.758;2023-04-03T12:10:00;102525.19;;;9.19;38.32
60465;BME280;46314;52.392;9.758;2023-04-03T12:12:38;102526.19;;;9.13;37.31
60465;BME280;46314;52.392;9.758;2023-04-03T12:15:17;102520.13;;;10.08;36.65
60465;BME280;46314;52.392;9.758;2023-04-03T12:17:44;102521.47;;;8.26;37.67
60465;BME280;46314;52.392;9.758;2023-04-03T12:23:26;102514.38;;;7.22;39.43
60465;BME280;46314;52.392;9.758;2023-04-03T12:26:04;102531.19;;;6.21;40.82
60465;BME280;46314;52.392;9.758;2023-04-03T12:28:36;102512.88;;;6.52;40.22
60465;BME280;46314;52.392;9.758;2023-04-03T12:31:04;102513.78;;;7.01;39.87
60465;BME280;46314;52.392;9.758;2023-04-03T12:33:42;102508.66;;;6.87;39.16
60465;BME280;46314;52.392;9.758;2023-04-03T12:36:15;102503.09;;;7.54;38.72
60465;BME280;46314;52.392;9.758;2023-04-03T12:39:13;102491.25;;;7.35;39.25
60465;BME280;46314;52.392;9.758;2023-04-03T12:41:48;102482.97;;;7.05;39.89
60465;BME280;46314;52.392;9.758;2023-04-03T12:44:26;102486.31;;;7.25;39.93
60465;BME280;46314;52.392;9.758;2023-04-03T12:47:00;102483.34;;;7.38;38.04
60465;BME280;46314;52.392;9.758;2023-04-03T12:49:36;102485.47;;;7.78;37.62
60465;BME280;46314;52.392;9.758;2023-04-03T12:52:06;102479.75;;;7.92;37.50
60465;BME280;46314;52.392;9.758;2023-04-03T12:54:45;102464.94;;;7.74;37.02
60465;BME280;46314;52.392;9.758;2023-04-03T12:57:17;102462.31;;;7.91;37.07
60465;BME280;46314;52.392;9.758;2023-04-03T12:59:45;102470.25;;;7.88;37.02
60465;BME280;46314;52.392;9.758;2023-04-03T13:02:20;102463.00;;;7.63;37.73
60465;BME280;46314;52.392;9.758;2023-04-03T13:04:48;102469.44;;;8.11;36.54
60465;BME280;46314;52.392;9.758;2023-04-03T13:07:20;102469.88;;;7.72;37.87
60465;BME280;46314;52.392;9.758;2023-04-03T13:09:57;102475.41;;;7.72;37.40
60465;BME280;46314;52.392;9.758;2023-04-03T13:12:24;102470.66;;;7.49;37.45
60465;BME280;46314;52.392;9.758;2023-04-03T13:14:55;102458.84;;;8.20;36.86
60465;BME280;46314;52.392;9.758;2023-04-03T13:17:22;102462.06;;;7.69;36.59
60465;BME280;46314;52.392;9.758;2023-04-03T13:19:48;102442.16;;;8.14;37.12
60465;BME280;46314;52.392;9.758;2023-04-03T13:22:25;102445.63;;;7.74;36.88